Time;durP1;ratioP1;P1;durP2;ratioP2;P2;SDS_P1;SDS_P2;PMS_P1;PMS_P2;Temp;Humidity;BMP_temperature;BMP_pressure;BME280_temperature;BME280_humidity;BME280_pressure;Samples;Min_cycle;Max_cycle;Signal;HPM_P1;HPM_P2
2022/07/18 00:00:28;;;;;;;;;;;18.50;99.90;;;;;;5011632;28;20425;-65
2022/07/18 00:02:54;;;;;;;;;;;18.40;99.90;;;;;;5014586;28;19925;-66
2022/07/18 00:05:21;;;;;;;;;;;18.40;99.90;;;;;;5018848;28;19925;-67
2022/07/18 00:07:49;;;;;;;;;;;18.40;99.90;;;;;;5013234;28;19926;-66
2022/07/18 00:10:16;;;;;;;;;;;18.30;99.90;;;;;;4996700;28;19927;-67
2022/07/18 00:12:43;;;;;;;;;;;18.40;99.90;;;;;;5023152;28;19929;-66
2022/07/18 00:15:10;;;;;;;;;;;18.30;99.90;;;;;;4996594;28;19926;-66
2022/07/18 00:17:37;;;;;;;;;;;18.30;99.90;;;;;;4996981;28;19925;-66
2022/07/18 00:20:05;;;;;;;;;;;18.20;99.90;;;;;;4990653;28;20352;-67
2022/07/18 00:22:31;;;;;;;;;;;18.20;99.90;;;;;;4999743;28;19935;-66
2022/07/18 00:25:00;;;;;;;;;;;18.20;99.90;;;;;;4997010;28;19925;-66
2022/07/18 00:27:26;;;;;;;;;;;18.30;99.90;;;;;;4996840;28;19926;-67
2022/07/18 00:29:53;;;;;;;;;;;18.30;99.90;;;;;;4995037;28;19948;-67
2022/07/18 00:32:20;;;;;;;;;;;18.30;99.90;;;;;;4996656;28;19929;-66
2022/07/18 00:34:47;;;;;;;;;;;18.30;99.90;;;;;;5015532;28;19934;-66
2022/07/18 00:37:14;;;;;;;;;;;18.20;99.90;;;;;;5020830;28;19937;-66
2022/07/18 00:39:40;;;;;;;;;;;18.10;99.90;;;;;;4993504;28;20020;-66
2022/07/18 00:42:09;;;;;;;;;;;18.00;99.90;;;;;;5021009;28;20401;-66
2022/07/18 00:44:36;;;;;;;;;;;18.00;99.90;;;;;;5007065;28;19975;-66
2022/07/18 00:47:03;;;;;;;;;;;18.00;99.90;;;;;;5021161;28;19936;-66
2022/07/18 00:49:30;;;;;;;;;;;18.00;99.90;;;;;;4996189;28;19979;-66
2022/07/18 00:51:57;;;;;;;;;;;18.00;99.90;;;;;;5015162;28;19930;-66
2022/07/18 00:54:24;;;;;;;;;;;17.90;99.90;;;;;;4996448;28;19929;-66
2022/07/18 00:56:51;;;;;;;;;;;17.80;99.90;;;;;;5016072;28;20302;-67
2022/07/18 00:59:19;;;;;;;;;;;17.80;99.90;;;;;;4995796;28;19925;-66
2022/07/18 01:01:47;;;;;;;;;;;17.70;99.90;;;;;;4996036;28;19929;-66
2022/07/18 01:04:15;;;;;;;;;;;17.70;99.90;;;;;;5012663;28;19932;-66
2022/07/18 01:06:42;;;;;;;;;;;17.60;99.90;;;;;;5014605;28;20390;-66
2022/07/18 01:09:09;;;;;;;;;;;17.60;99.90;;;;;;5016970;28;20356;-66
2022/07/18 01:11:36;;;;;;;;;;;17.60;99.90;;;;;;5020532;28;19932;-66
2022/07/18 01:14:03;;;;;;;;;;;17.60;99.90;;;;;;5018406;28;20298;-66
2022/07/18 01:16:31;;;;;;;;;;;17.50;99.90;;;;;;5014647;28;19926;-66
2022/07/18 01:18:58;;;;;;;;;;;17.40;99.90;;;;;;5018290;28;19933;-66
2022/07/18 01:21:27;;;;;;;;;;;17.40;99.90;;;;;;5016919;28;19926;-66
2022/07/18 01:23:53;;;;;;;;;;;17.20;99.90;;;;;;5014864;28;19937;-66
2022/07/18 01:26:20;;;;;;;;;;;17.20;99.90;;;;;;5013360;28;19925;-66
2022/07/18 01:28:47;;;;;;;;;;;17.20;99.90;;;;;;4999807;28;20308;-64
2022/07/18 01:31:14;;;;;;;;;;;17.20;99.90;;;;;;5011784;28;19933;-67
2022/07/18 01:33:41;;;;;;;;;;;17.10;99.90;;;;;;5021550;28;20351;-66
2022/07/18 01:36:08;;;;;;;;;;;17.00;99.90;;;;;;5017422;28;19925;-66
2022/07/18 01:38:37;;;;;;;;;;;16.90;99.90;;;;;;5011625;28;20324;-66
2022/07/18 01:41:05;;;;;;;;;;;16.90;99.90;;;;;;5013963;28;19929;-66
2022/07/18 01:43:32;;;;;;;;;;;16.90;99.90;;;;;;5009622;28;19926;-66
2022/07/18 01:45:59;;;;;;;;;;;16.90;99.90;;;;;;5008299;28;19946;-66
2022/07/18 01:48:36;;;;;;;;;;;17.10;99.90;;;;;;5113315;27;19918;-66
2022/07/18 01:51:02;;;;;;;;;;;17.10;99.90;;;;;;5101705;28;20395;-65
2022/07/18 01:53:29;;;;;;;;;;;17.00;99.90;;;;;;5102971;28;19924;-65
2022/07/18 01:55:56;;;;;;;;;;;16.90;99.90;;;;;;5103639;28;19924;-65
2022/07/18 01:58:23;;;;;;;;;;;16.80;99.90;;;;;;5102996;27;19927;-66
2022/07/18 02:00:49;;;;;;;;;;;16.80;99.90;;;;;;5091274;28;19923;-65
2022/07/18 02:03:16;;;;;;;;;;;16.90;99.90;;;;;;5101944;28;19924;-66
2022/07/18 02:05:44;;;;;;;;;;;16.90;99.90;;;;;;5096099;28;20462;-66
2022/07/18 02:08:11;;;;;;;;;;;16.80;99.90;;;;;;5099081;28;19924;-66
2022/07/18 02:10:38;;;;;;;;;;;16.70;99.90;;;;;;5095886;28;19925;-66
2022/07/18 02:13:05;;;;;;;;;;;16.70;99.90;;;;;;5097842;28;19936;-66
2022/07/18 02:15:32;;;;;;;;;;;16.50;99.90;;;;;;5099431;28;19928;-65
2022/07/18 02:17:59;;;;;;;;;;;16.40;99.90;;;;;;5098051;28;19928;-66
2022/07/18 02:20:25;;;;;;;;;;;16.40;99.90;;;;;;5089078;27;19932;-66
2022/07/18 02:22:54;;;;;;;;;;;16.40;99.90;;;;;;5097898;27;19951;-66
2022/07/18 02:25:20;;;;;;;;;;;16.40;99.90;;;;;;5101667;27;19969;-65
2022/07/18 02:27:47;;;;;;;;;;;16.30;99.90;;;;;;5102521;28;19923;-66
2022/07/18 02:30:14;;;;;;;;;;;16.30;99.90;;;;;;5096094;28;19927;-66
2022/07/18 02:32:41;;;;;;;;;;;16.20;99.90;;;;;;5104663;28;19969;-65
2022/07/18 02:35:08;;;;;;;;;;;16.20;99.90;;;;;;5102222;28;19923;-65
2022/07/18 02:37:37;;;;;;;;;;;16.20;99.90;;;;;;5090755;28;19931;-66
2022/07/18 02:40:07;;;;;;;;;;;16.10;99.90;;;;;;5097876;27;20010;-65
2022/07/18 02:42:34;;;;;;;;;;;16.10;99.90;;;;;;5092492;28;20351;-65
2022/07/18 02:47:42;;;;;;;;;;;16.00;99.90;;;;;;5100036;28;19939;-66
2022/07/18 02:50:09;;;;;;;;;;;16.00;99.90;;;;;;5095921;28;19924;-66
2022/07/18 02:52:36;;;;;;;;;;;16.10;99.90;;;;;;5102198;28;19927;-65
2022/07/18 02:55:03;;;;;;;;;;;16.00;99.90;;;;;;5102699;28;19924;-66
2022/07/18 02:57:32;;;;;;;;;;;16.00;99.90;;;;;;5101234;28;20406;-63
2022/07/18 02:59:59;;;;;;;;;;;16.00;99.90;;;;;;5088368;28;19923;-66
2022/07/18 03:02:25;;;;;;;;;;;15.90;99.90;;;;;;5087846;28;19931;-66
2022/07/18 03:04:52;;;;;;;;;;;15.90;99.90;;;;;;5086770;28;19931;-65
2022/07/18 03:07:19;;;;;;;;;;;15.90;99.90;;;;;;5088440;28;20395;-65
2022/07/18 03:09:46;;;;;;;;;;;15.90;99.90;;;;;;5083181;28;19935;-66
2022/07/18 03:12:13;;;;;;;;;;;15.80;99.90;;;;;;5084687;28;19924;-65
2022/07/18 03:14:41;;;;;;;;;;;15.80;99.90;;;;;;5089775;28;19973;-65
2022/07/18 03:17:08;;;;;;;;;;;15.70;99.90;;;;;;5079149;28;19924;-66
2022/07/18 03:19:35;;;;;;;;;;;15.70;99.90;;;;;;5090483;28;19930;-65
2022/07/18 03:22:01;;;;;;;;;;;15.60;99.90;;;;;;5064171;28;19931;-65
2022/07/18 03:24:28;;;;;;;;;;;15.60;99.90;;;;;;5090118;28;19924;-66
2022/07/18 03:26:55;;;;;;;;;;;15.60;99.90;;;;;;5081664;28;19932;-66
2022/07/18 03:29:22;;;;;;;;;;;15.70;99.90;;;;;;5088375;28;19928;-65
2022/07/18 03:31:51;;;;;;;;;;;15.70;99.90;;;;;;5075167;28;20361;-65
2022/07/18 03:34:17;;;;;;;;;;;15.60;99.90;;;;;;5080158;28;20407;-66
2022/07/18 03:36:44;;;;;;;;;;;15.50;99.90;;;;;;5091152;28;19927;-65
2022/07/18 03:39:12;;;;;;;;;;;15.50;99.90;;;;;;5073733;28;19924;-65
2022/07/18 03:41:39;;;;;;;;;;;15.50;99.90;;;;;;5088683;28;19987;-65
2022/07/18 03:44:06;;;;;;;;;;;15.40;99.90;;;;;;5084399;28;19924;-65
2022/07/18 03:46:33;;;;;;;;;;;15.30;99.90;;;;;;5083270;28;19932;-66
2022/07/18 03:49:01;;;;;;;;;;;15.30;99.90;;;;;;5087288;28;19930;-65
2022/07/18 03:51:28;;;;;;;;;;;15.10;99.90;;;;;;5083896;28;20031;-65
2022/07/18 03:53:55;;;;;;;;;;;15.10;99.90;;;;;;5077719;28;19931;-66
2022/07/18 03:56:22;;;;;;;;;;;15.10;99.90;;;;;;5075942;28;19931;-66
2022/07/18 03:58:48;;;;;;;;;;;15.10;99.90;;;;;;5084433;28;19931;-66
2022/07/18 04:01:15;;;;;;;;;;;15.10;99.90;;;;;;5086874;28;19924;-66
2022/07/18 04:03:42;;;;;;;;;;;15.20;99.90;;;;;;5083694;28;19924;-66
2022/07/18 04:06:10;;;;;;;;;;;15.30;99.90;;;;;;5087335;28;19948;-65
2022/07/18 04:08:37;;;;;;;;;;;15.40;99.90;;;;;;5086441;28;19932;-66
2022/07/18 04:11:04;;;;;;;;;;;15.60;99.90;;;;;;5086277;28;19924;-66
2022/07/18 04:13:30;;;;;;;;;;;15.60;99.90;;;;;;5078478;28;19994;-65
2022/07/18 04:15:57;;;;;;;;;;;15.60;99.90;;;;;;5082601;28;19928;-66
2022/07/18 04:18:24;;;;;;;;;;;15.60;99.90;;;;;;5080316;28;19928;-65
2022/07/18 04:20:51;;;;;;;;;;;15.70;99.90;;;;;;5086910;28;19923;-66
2022/07/18 04:23:19;;;;;;;;;;;15.70;99.90;;;;;;5079303;28;20504;-66
2022/07/18 04:25:46;;;;;;;;;;;15.60;99.90;;;;;;5086731;28;19928;-66
2022/07/18 04:28:13;;;;;;;;;;;15.70;99.90;;;;;;5086850;28;20352;-66
2022/07/18 04:30:41;;;;;;;;;;;15.70;99.90;;;;;;5085218;28;20333;-65
2022/07/18 04:33:09;;;;;;;;;;;15.80;99.90;;;;;;5083041;28;19932;-65
2022/07/18 04:35:37;;;;;;;;;;;16.00;99.90;;;;;;5086598;28;19927;-66
2022/07/18 04:38:04;;;;;;;;;;;15.90;99.90;;;;;;5086647;28;19959;-63
2022/07/18 04:40:33;;;;;;;;;;;16.00;99.90;;;;;;5077628;28;19927;-65
2022/07/18 04:42:59;;;;;;;;;;;16.10;99.90;;;;;;5085971;28;19931;-65
2022/07/18 04:45:26;;;;;;;;;;;16.20;99.90;;;;;;5086336;28;19928;-65
2022/07/18 04:47:54;;;;;;;;;;;16.30;99.90;;;;;;5085504;28;20322;-66
2022/07/18 04:50:22;;;;;;;;;;;16.30;99.90;;;;;;5088632;28;19923;-66
2022/07/18 04:52:49;;;;;;;;;;;16.40;99.90;;;;;;5080189;28;19924;-65
2022/07/18 04:55:16;;;;;;;;;;;16.50;99.90;;;;;;5091971;28;19923;-65
2022/07/18 04:57:44;;;;;;;;;;;16.50;99.90;;;;;;5083378;28;19932;-65
2022/07/18 05:00:13;;;;;;;;;;;16.60;99.90;;;;;;5087696;28;19923;-65
2022/07/18 05:02:40;;;;;;;;;;;16.70;99.90;;;;;;5068658;28;19946;-65
2022/07/18 05:05:08;;;;;;;;;;;16.80;99.90;;;;;;5083311;28;19923;-64
2022/07/18 05:07:35;;;;;;;;;;;16.80;99.90;;;;;;5079965;28;19924;-65
2022/07/18 05:10:03;;;;;;;;;;;17.00;99.90;;;;;;5083822;28;19924;-65
2022/07/18 05:12:30;;;;;;;;;;;17.10;99.90;;;;;;5089152;28;20447;-66
2022/07/18 05:14:58;;;;;;;;;;;17.30;99.90;;;;;;5079114;28;19989;-65
2022/07/18 05:17:25;;;;;;;;;;;17.40;99.90;;;;;;5090513;28;19928;-70
2022/07/18 05:19:52;;;;;;;;;;;17.60;99.90;;;;;;5086222;28;19924;-65
2022/07/18 05:22:19;;;;;;;;;;;17.60;99.90;;;;;;5090128;28;19924;-65
2022/07/18 05:24:46;;;;;;;;;;;17.60;99.90;;;;;;5082699;28;20380;-65
2022/07/18 05:27:12;;;;;;;;;;;17.70;99.90;;;;;;5082336;28;20387;-65
2022/07/18 05:29:39;;;;;;;;;;;17.80;99.90;;;;;;5088300;28;19928;-66
2022/07/18 05:32:08;;;;;;;;;;;17.90;99.90;;;;;;5076864;28;19932;-62
2022/07/18 05:34:35;;;;;;;;;;;18.00;99.90;;;;;;5073986;28;20031;-65
2022/07/18 05:37:01;;;;;;;;;;;18.10;99.90;;;;;;5070825;28;19933;-66
2022/07/18 05:39:28;;;;;;;;;;;18.20;99.90;;;;;;5076872;28;20000;-65
2022/07/18 05:41:55;;;;;;;;;;;18.40;99.90;;;;;;5078523;28;19954;-65
2022/07/18 05:44:22;;;;;;;;;;;18.60;99.90;;;;;;5059422;28;19925;-70
2022/07/18 05:46:49;;;;;;;;;;;18.70;99.90;;;;;;5073976;28;20340;-64
2022/07/18 05:49:17;;;;;;;;;;;18.80;99.90;;;;;;5061959;28;19928;-65
2022/07/18 05:51:44;;;;;;;;;;;18.90;99.90;;;;;;5072026;28;19931;-64
2022/07/18 05:54:10;;;;;;;;;;;19.00;99.90;;;;;;5076674;28;19928;-64
2022/07/18 05:56:37;;;;;;;;;;;19.20;99.90;;;;;;5062605;28;19928;-65
2022/07/18 05:59:05;;;;;;;;;;;19.30;99.90;;;;;;5079602;28;19935;-65
2022/07/18 06:01:32;;;;;;;;;;;19.40;99.90;;;;;;5067655;28;19951;-65
2022/07/18 06:03:59;;;;;;;;;;;19.40;99.90;;;;;;5067233;28;19947;-62
2022/07/18 06:06:27;;;;;;;;;;;19.50;99.90;;;;;;5072540;28;20050;-62
2022/07/18 06:08:54;;;;;;;;;;;19.60;99.90;;;;;;5070468;28;19924;-65
2022/07/18 06:11:21;;;;;;;;;;;19.60;99.90;;;;;;5074191;28;20452;-64
2022/07/18 06:13:47;;;;;;;;;;;19.70;99.90;;;;;;5081094;28;19932;-65
2022/07/18 06:16:14;;;;;;;;;;;19.70;99.90;;;;;;5075281;28;19928;-61
2022/07/18 06:18:41;;;;;;;;;;;19.90;99.90;;;;;;5078705;28;19932;-65
2022/07/18 06:21:08;;;;;;;;;;;20.10;99.90;;;;;;5084145;28;19935;-64
2022/07/18 06:23:36;;;;;;;;;;;20.10;99.90;;;;;;5066497;28;20293;-71
2022/07/18 06:26:03;;;;;;;;;;;20.30;99.90;;;;;;5070406;28;19923;-65
2022/07/18 06:28:30;;;;;;;;;;;20.40;99.90;;;;;;5073658;28;19924;-65
2022/07/18 06:30:56;;;;;;;;;;;20.50;99.90;;;;;;5080855;28;19924;-65
2022/07/18 06:33:23;;;;;;;;;;;20.60;99.90;;;;;;5075977;28;19928;-65
2022/07/18 06:35:50;;;;;;;;;;;20.80;99.90;;;;;;5074495;28;19928;-64
2022/07/18 06:38:17;;;;;;;;;;;21.00;99.90;;;;;;5080626;28;19978;-65
2022/07/18 06:40:45;;;;;;;;;;;21.10;99.90;;;;;;5076730;28;19939;-65
2022/07/18 06:43:13;;;;;;;;;;;21.20;99.90;;;;;;5081582;28;19924;-64
2022/07/18 06:45:40;;;;;;;;;;;21.30;99.90;;;;;;5078087;28;20014;-65
2022/07/18 06:48:07;;;;;;;;;;;21.40;99.90;;;;;;5084074;28;19970;-65
2022/07/18 06:50:34;;;;;;;;;;;21.50;99.90;;;;;;5076173;28;19924;-66
2022/07/18 06:53:01;;;;;;;;;;;21.60;99.90;;;;;;5081646;28;19928;-65
2022/07/18 06:55:28;;;;;;;;;;;21.70;99.90;;;;;;5079310;28;19924;-65
2022/07/18 06:57:56;;;;;;;;;;;21.80;99.90;;;;;;5083062;28;20345;-65
2022/07/18 07:00:23;;;;;;;;;;;21.80;99.90;;;;;;5079679;28;19935;-65
2022/07/18 07:02:50;;;;;;;;;;;22.00;99.90;;;;;;5073673;28;19923;-65
2022/07/18 07:05:17;;;;;;;;;;;22.10;99.90;;;;;;5082968;28;19931;-67
2022/07/18 07:07:45;;;;;;;;;;;22.10;99.90;;;;;;5085845;28;19932;-64
2022/07/18 07:10:12;;;;;;;;;;;22.20;99.90;;;;;;5080799;28;19928;-65
2022/07/18 07:12:39;;;;;;;;;;;22.20;99.90;;;;;;5085620;28;20346;-66
2022/07/18 07:15:09;;;;;;;;;;;22.20;99.90;;;;;;5081730;28;19924;-65
2022/07/18 07:17:36;;;;;;;;;;;22.30;99.90;;;;;;5091110;28;19924;-65
2022/07/18 07:20:04;;;;;;;;;;;22.50;99.90;;;;;;5076905;28;19925;-64
2022/07/18 07:22:31;;;;;;;;;;;22.60;99.90;;;;;;5105437;28;19924;-64
2022/07/18 07:24:58;;;;;;;;;;;22.70;99.90;;;;;;5084490;28;19924;-66
2022/07/18 07:27:25;;;;;;;;;;;22.70;99.90;;;;;;5082560;28;19931;-65
2022/07/18 07:29:52;;;;;;;;;;;22.80;99.90;;;;;;5085410;28;19928;-65
2022/07/18 07:32:20;;;;;;;;;;;22.90;99.90;;;;;;5080292;28;19931;-65
2022/07/18 07:34:47;;;;;;;;;;;23.20;99.90;;;;;;5085972;28;20418;-65
2022/07/18 07:37:14;;;;;;;;;;;23.30;99.90;;;;;;5084992;28;19924;-64
2022/07/18 07:42:17;;;;;;;;;;;23.30;99.90;;;;;;5028667;28;19930;-66
2022/07/18 07:44:44;;;;;;;;;;;23.40;99.90;;;;;;5013052;28;19964;-66
2022/07/18 07:47:11;;;;;;;;;;;23.40;99.90;;;;;;5030850;28;19964;-66
2022/07/18 07:49:38;;;;;;;;;;;23.50;99.90;;;;;;5013185;28;19948;-66
2022/07/18 07:52:05;;;;;;;;;;;23.50;99.90;;;;;;5014947;28;19972;-67
2022/07/18 07:54:32;;;;;;;;;;;23.60;99.90;;;;;;5012422;28;20013;-66
2022/07/18 07:56:58;;;;;;;;;;;23.80;99.90;;;;;;5037411;28;20015;-67
2022/07/18 07:59:25;;;;;;;;;;;23.90;99.90;;;;;;5029624;28;20148;-65
2022/07/18 08:01:52;;;;;;;;;;;24.00;99.90;;;;;;5010911;28;20454;-64
2022/07/18 08:04:18;;;;;;;;;;;24.10;99.90;;;;;;5030325;28;19925;-62
2022/07/18 08:06:47;;;;;;;;;;;24.20;99.90;;;;;;5026825;28;19929;-63
2022/07/18 08:09:14;;;;;;;;;;;24.40;99.90;;;;;;5014708;28;19933;-61
2022/07/18 08:11:41;;;;;;;;;;;24.50;99.90;;;;;;5007679;28;19979;-63
2022/07/18 08:14:07;;;;;;;;;;;24.60;99.90;;;;;;5002890;28;19925;-66
2022/07/18 08:16:34;;;;;;;;;;;24.70;99.90;;;;;;5034138;28;19925;-66
2022/07/18 08:19:01;;;;;;;;;;;24.80;99.90;;;;;;5029558;28;19925;-67
2022/07/18 08:21:28;;;;;;;;;;;24.90;99.90;;;;;;5013949;28;20015;-66
2022/07/18 08:23:56;;;;;;;;;;;25.10;99.90;;;;;;5004686;28;19933;-66
2022/07/18 08:26:23;;;;;;;;;;;25.30;99.90;;;;;;5003536;28;19933;-66
2022/07/18 08:28:50;;;;;;;;;;;25.40;99.90;;;;;;5016830;28;19937;-65
2022/07/18 08:31:18;;;;;;;;;;;25.60;99.90;;;;;;5017553;28;19933;-66
2022/07/18 08:33:45;;;;;;;;;;;25.80;99.90;;;;;;5011503;28;19929;-66
2022/07/18 08:36:12;;;;;;;;;;;25.90;99.90;;;;;;5028744;28;19944;-66
2022/07/18 08:38:38;;;;;;;;;;;26.10;99.90;;;;;;5026081;28;19925;-66
2022/07/18 08:41:07;;;;;;;;;;;26.20;99.90;;;;;;5020399;28;19925;-67
2022/07/18 08:43:34;;;;;;;;;;;26.40;99.90;;;;;;5003050;28;19936;-66
2022/07/18 08:46:02;;;;;;;;;;;26.50;99.90;;;;;;5005077;28;19925;-68
2022/07/18 08:48:29;;;;;;;;;;;26.60;99.90;;;;;;5024179;28;19925;-66
2022/07/18 08:50:56;;;;;;;;;;;26.80;99.90;;;;;;5013523;28;19988;-69
2022/07/18 08:53:23;;;;;;;;;;;26.90;99.90;;;;;;5023674;28;20338;-72
2022/07/18 08:55:49;;;;;;;;;;;27.00;99.90;;;;;;5008940;28;19996;-67
2022/07/18 08:58:18;;;;;;;;;;;27.20;99.90;;;;;;5001974;28;19933;-67
2022/07/18 09:00:45;;;;;;;;;;;27.30;99.90;;;;;;5007615;28;19925;-66
2022/07/18 09:03:13;;;;;;;;;;;27.40;99.90;;;;;;5025273;28;20278;-66
2022/07/18 09:05:41;;;;;;;;;;;27.40;99.90;;;;;;5007979;28;19925;-66
2022/07/18 09:08:09;;;;;;;;;;;27.50;99.90;;;;;;5012803;28;19960;-66
2022/07/18 09:10:41;;;;;;;;;;;27.70;99.90;;;;;;5007391;28;20472;-66
2022/07/18 09:13:08;;;;;;;;;;;27.90;99.90;;;;;;5020898;28;19925;-66
2022/07/18 09:15:56;;;;;;;;;;;28.00;99.90;;;;;;5009745;28;19991;-67
2022/07/18 09:18:27;;;;;;;;;;;28.00;99.90;;;;;;5023648;28;19929;-66
2022/07/18 09:20:58;;;;;;;;;;;28.20;99.60;;;;;;5037653;28;20393;-67
2022/07/18 09:23:28;;;;;;;;;;;28.30;99.70;;;;;;5027565;28;19933;-66
2022/07/18 09:25:54;;;;;;;;;;;28.40;99.00;;;;;;5020613;28;19930;-66
2022/07/18 09:28:21;;;;;;;;;;;28.50;98.20;;;;;;5011739;28;19925;-67
2022/07/18 09:30:49;;;;;;;;;;;28.70;98.20;;;;;;5012867;28;19925;-66
2022/07/18 09:33:16;;;;;;;;;;;28.80;99.10;;;;;;5003409;28;19932;-66
2022/07/18 09:35:44;;;;;;;;;;;28.80;98.10;;;;;;5030359;28;19937;-67
2022/07/18 09:38:12;;;;;;;;;;;28.80;97.70;;;;;;5041079;28;19925;-66
2022/07/18 09:40:39;;;;;;;;;;;28.90;97.50;;;;;;5012711;28;19932;-66
2022/07/18 09:43:07;;;;;;;;;;;28.90;97.00;;;;;;5004761;28;19925;-66
2022/07/18 09:45:35;;;;;;;;;;;29.00;97.20;;;;;;5031191;28;19925;-67
2022/07/18 09:48:04;;;;;;;;;;;29.10;97.40;;;;;;5021924;28;19925;-67
2022/07/18 09:50:32;;;;;;;;;;;29.20;97.00;;;;;;5011542;28;19929;-66
2022/07/18 09:53:04;;;;;;;;;;;29.30;97.50;;;;;;5005198;28;19925;-67
2022/07/18 09:55:31;;;;;;;;;;;29.50;96.90;;;;;;5024865;28;19932;-67
2022/07/18 09:58:01;;;;;;;;;;;29.50;97.00;;;;;;5036342;28;19983;-67
2022/07/18 10:00:29;;;;;;;;;;;29.50;96.90;;;;;;5010762;28;20304;-67
2022/07/18 10:02:56;;;;;;;;;;;29.60;96.80;;;;;;5008952;28;19933;-67
2022/07/18 10:05:24;;;;;;;;;;;29.60;96.90;;;;;;5007245;28;19925;-67
2022/07/18 10:07:51;;;;;;;;;;;29.80;96.90;;;;;;5001258;28;19933;-67
2022/07/18 10:10:18;;;;;;;;;;;30.00;97.00;;;;;;5021673;28;19925;-67
2022/07/18 10:12:45;;;;;;;;;;;30.30;96.50;;;;;;5032617;28;20534;-67
2022/07/18 10:15:12;;;;;;;;;;;30.30;96.50;;;;;;5011792;28;19925;-67
2022/07/18 10:17:39;;;;;;;;;;;30.30;96.50;;;;;;5016164;28;19932;-67
2022/07/18 10:20:06;;;;;;;;;;;30.20;96.70;;;;;;5016010;28;19929;-67
2022/07/18 10:22:38;;;;;;;;;;;30.40;96.40;;;;;;5016446;28;19971;-67
2022/07/18 10:25:06;;;;;;;;;;;30.50;96.40;;;;;;5016236;28;19936;-66
2022/07/18 10:27:48;;;;;;;;;;;30.70;96.00;;;;;;5012779;28;20454;-66
2022/07/18 10:30:15;;;;;;;;;;;30.70;95.90;;;;;;5015380;28;20016;-67
2022/07/18 10:32:42;;;;;;;;;;;30.70;96.20;;;;;;5013997;28;20412;-67
2022/07/18 10:35:10;;;;;;;;;;;30.70;96.10;;;;;;5043854;28;19925;-67
2022/07/18 10:37:38;;;;;;;;;;;30.70;96.10;;;;;;5011204;28;19926;-67
2022/07/18 10:40:25;;;;;;;;;;;30.70;95.90;;;;;;5014759;28;20455;-66
2022/07/18 10:43:11;;;;;;;;;;;30.80;96.30;;;;;;5024615;28;20351;-67
2022/07/18 10:45:43;;;;;;;;;;;31.00;96.10;;;;;;5016782;28;19929;-67
2022/07/18 10:48:29;;;;;;;;;;;31.20;96.10;;;;;;5026884;28;19957;-67
2022/07/18 10:51:02;;;;;;;;;;;31.40;96.00;;;;;;5014373;28;19932;-67
2022/07/18 10:53:44;;;;;;;;;;;31.40;95.50;;;;;;5013140;28;19933;-67
2022/07/18 10:56:12;;;;;;;;;;;31.40;95.70;;;;;;5033919;28;19925;-67
2022/07/18 10:58:39;;;;;;;;;;;31.50;95.40;;;;;;5026309;28;19933;-67
2022/07/18 11:01:07;;;;;;;;;;;31.70;95.80;;;;;;5012760;28;19990;-67
2022/07/18 11:03:33;;;;;;;;;;;32.00;95.60;;;;;;5033553;28;19980;-67
2022/07/18 11:06:00;;;;;;;;;;;32.20;95.60;;;;;;5003534;28;19980;-67
2022/07/18 11:08:28;;;;;;;;;;;32.30;95.90;;;;;;5002963;28;19925;-67
2022/07/18 11:11:05;;;;;;;;;;;32.40;95.90;;;;;;5005015;28;19926;-67
2022/07/18 11:13:35;;;;;;;;;;;32.60;95.80;;;;;;5008927;28;20355;-67
2022/07/18 11:16:05;;;;;;;;;;;32.70;95.60;;;;;;5013501;28;20012;-67
2022/07/18 11:18:32;;;;;;;;;;;32.70;95.40;;;;;;5002671;28;19929;-67
2022/07/18 11:20:58;;;;;;;;;;;32.60;94.80;;;;;;5007551;28;19933;-67
2022/07/18 11:23:26;;;;;;;;;;;32.80;95.40;;;;;;5010375;28;19937;-67
2022/07/18 11:25:56;;;;;;;;;;;33.00;95.00;;;;;;5038985;28;19929;-67
2022/07/18 11:28:23;;;;;;;;;;;33.10;95.00;;;;;;5009290;28;19932;-67
2022/07/18 11:31:01;;;;;;;;;;;33.40;94.60;;;;;;5009137;28;19944;-67
2022/07/18 11:33:29;;;;;;;;;;;33.50;93.90;;;;;;5038692;28;19925;-67
2022/07/18 11:36:02;;;;;;;;;;;33.40;93.80;;;;;;5025156;28;20338;-67
2022/07/18 11:38:29;;;;;;;;;;;33.70;93.80;;;;;;5039676;28;19929;-67
2022/07/18 11:40:56;;;;;;;;;;;34.00;94.10;;;;;;5025022;28;19979;-67
2022/07/18 11:43:23;;;;;;;;;;;34.90;94.20;;;;;;5010898;28;19929;-67
2022/07/18 11:46:01;;;;;;;;;;;36.10;94.40;;;;;;5039035;28;20470;-67
2022/07/18 11:48:28;;;;;;;;;;;36.90;93.80;;;;;;5022820;28;20389;-67
2022/07/18 11:50:55;;;;;;;;;;;37.70;93.10;;;;;;5039665;28;19929;-67
2022/07/18 11:53:22;;;;;;;;;;;38.00;92.70;;;;;;5009570;28;19925;-67
2022/07/18 11:55:49;;;;;;;;;;;37.60;92.60;;;;;;5002858;28;19929;-67
2022/07/18 11:58:17;;;;;;;;;;;38.20;92.30;;;;;;5008827;28;19929;-67
2022/07/18 12:00:44;;;;;;;;;;;38.70;92.10;;;;;;5026131;28;19980;-67
2022/07/18 12:03:13;;;;;;;;;;;39.40;92.10;;;;;;5030150;28;19925;-67
2022/07/18 12:05:41;;;;;;;;;;;40.80;92.20;;;;;;5011023;28;19925;-67
2022/07/18 12:08:26;;;;;;;;;;;41.30;90.90;;;;;;5038154;28;20392;-67
2022/07/18 12:11:06;;;;;;;;;;;41.50;90.80;;;;;;5007026;28;20361;-67
2022/07/18 12:13:43;;;;;;;;;;;42.10;90.20;;;;;;5009899;28;19925;-67
2022/07/18 12:16:21;;;;;;;;;;;42.70;90.10;;;;;;5040727;28;19955;-67
2022/07/18 12:18:51;;;;;;;;;;;42.40;89.20;;;;;;5013463;28;19929;-67
2022/07/18 12:21:17;;;;;;;;;;;42.90;89.10;;;;;;5010671;28;20011;-67
2022/07/18 12:23:44;;;;;;;;;;;43.80;89.10;;;;;;5032343;28;19975;-67
2022/07/18 12:26:26;;;;;;;;;;;44.10;88.80;;;;;;5010685;28;20454;-67
2022/07/18 12:29:03;;;;;;;;;;;44.70;86.80;;;;;;5027341;28;19925;-67
2022/07/18 12:31:37;;;;;;;;;;;44.30;85.50;;;;;;5011897;28;19935;-67
2022/07/18 12:34:12;;;;;;;;;;;44.10;85.90;;;;;;5009195;28;19925;-67
2022/07/18 12:36:56;;;;;;;;;;;43.50;86.40;;;;;;5014809;28;20408;-67
2022/07/18 12:39:30;;;;;;;;;;;43.40;85.20;;;;;;5034692;28;19929;-67
2022/07/18 12:41:57;;;;;;;;;;;43.20;85.10;;;;;;5012756;28;19975;-67
2022/07/18 12:44:24;;;;;;;;;;;42.60;84.60;;;;;;5010897;28;19937;-67
2022/07/18 12:46:51;;;;;;;;;;;42.70;84.10;;;;;;5037594;28;20392;-67
2022/07/18 12:49:19;;;;;;;;;;;43.00;84.40;;;;;;5010901;28;19933;-67
2022/07/18 12:51:46;;;;;;;;;;;43.40;86.40;;;;;;5007221;28;19937;-67
2022/07/18 12:54:13;;;;;;;;;;;44.20;84.30;;;;;;5013740;28;19925;-67
2022/07/18 12:56:40;;;;;;;;;;;44.70;83.90;;;;;;5023080;28;20324;-67
2022/07/18 12:59:08;;;;;;;;;;;45.60;84.60;;;;;;5011788;28;19925;-67
2022/07/18 13:01:34;;;;;;;;;;;46.40;84.70;;;;;;5007321;28;19937;-68
2022/07/18 13:04:01;;;;;;;;;;;46.20;81.60;;;;;;5026471;28;19929;-67
2022/07/18 13:06:29;;;;;;;;;;;45.80;81.30;;;;;;5035753;28;19979;-68
2022/07/18 13:08:56;;;;;;;;;;;43.90;81.60;;;;;;5010379;28;19932;-78
2022/07/18 13:11:23;;;;;;;;;;;44.80;81.70;;;;;;5009068;28;19929;-76
2022/07/18 13:13:50;;;;;;;;;;;44.40;80.70;;;;;;5037054;28;19944;-67
2022/07/18 13:16:16;;;;;;;;;;;44.30;81.20;;;;;;5034753;28;19933;-67
2022/07/18 13:18:43;;;;;;;;;;;44.00;86.40;;;;;;5012741;28;19933;-67
2022/07/18 13:21:11;;;;;;;;;;;44.80;85.40;;;;;;5009487;28;19933;-67
2022/07/18 13:23:39;;;;;;;;;;;45.70;84.60;;;;;;5025718;28;19925;-69
2022/07/18 13:26:06;;;;;;;;;;;46.10;80.90;;;;;;5009074;28;19968;-72
2022/07/18 13:28:33;;;;;;;;;;;46.10;80.20;;;;;;5008564;28;19925;-71
2022/07/18 13:31:01;;;;;;;;;;;45.70;79.30;;;;;;5011261;28;19932;-73
2022/07/18 13:33:28;;;;;;;;;;;44.60;78.70;;;;;;5021607;28;19925;-73
2022/07/18 13:35:54;;;;;;;;;;;44.20;78.50;;;;;;5030517;28;20356;-67
2022/07/18 13:38:21;;;;;;;;;;;42.50;78.10;;;;;;5010339;28;19925;-67
2022/07/18 13:40:51;;;;;;;;;;;42.20;78.40;;;;;;5004713;28;19929;-76
2022/07/18 13:43:18;;;;;;;;;;;43.90;78.80;;;;;;5010676;28;19926;-66
2022/07/18 13:45:45;;;;;;;;;;;45.20;79.00;;;;;;5013801;28;19971;-67
2022/07/18 13:48:12;;;;;;;;;;;45.30;78.60;;;;;;5012927;28;19971;-66
2022/07/18 13:50:39;;;;;;;;;;;45.10;77.40;;;;;;5010096;28;19933;-66
2022/07/18 13:53:06;;;;;;;;;;;44.70;77.60;;;;;;5019732;28;19929;-66
2022/07/18 13:55:33;;;;;;;;;;;44.50;77.00;;;;;;5017290;28;20348;-66
2022/07/18 13:58:02;;;;;;;;;;;45.30;77.40;;;;;;5008231;28;20014;-66
2022/07/18 14:00:28;;;;;;;;;;;45.50;76.70;;;;;;5029735;28;20355;-66
2022/07/18 14:02:55;;;;;;;;;;;45.10;76.30;;;;;;5034611;28;19925;-65
2022/07/18 14:05:22;;;;;;;;;;;44.30;76.70;;;;;;5013663;28;19925;-66
2022/07/18 14:07:49;;;;;;;;;;;44.30;77.50;;;;;;5013291;28;19970;-65
2022/07/18 14:10:16;;;;;;;;;;;44.60;76.30;;;;;;5013466;28;19925;-66
2022/07/18 14:12:43;;;;;;;;;;;45.00;75.80;;;;;;5016250;28;19940;-65
2022/07/18 14:15:12;;;;;;;;;;;44.20;75.60;;;;;;5021712;28;19932;-66
2022/07/18 14:17:38;;;;;;;;;;;44.50;75.80;;;;;;5014994;28;19925;-66
2022/07/18 14:20:07;;;;;;;;;;;45.40;75.50;;;;;;5012935;28;20346;-67
2022/07/18 14:22:34;;;;;;;;;;;45.40;75.30;;;;;;5013493;28;19925;-66
2022/07/18 14:25:01;;;;;;;;;;;45.40;76.80;;;;;;5019521;28;19929;-68